createdAt,value
2019-04-29T00:03:00.494Z,2.50
2019-04-29T00:08:11.188Z,2.67
2019-04-29T00:13:17.216Z,2.72
2019-04-29T00:18:28.648Z,2.70
2019-04-29T00:23:33.900Z,2.52
2019-04-29T00:28:38.698Z,2.65
2019-04-29T00:33:43.838Z,2.80
2019-04-29T00:39:02.570Z,2.77
2019-04-29T00:44:11.739Z,3.00
2019-04-29T00:49:16.755Z,3.12
2019-04-29T00:54:30.702Z,3.22
2019-04-29T00:59:35.474Z,2.98
2019-04-29T01:04:40.565Z,3.42
2019-04-29T01:09:45.435Z,3.50
2019-04-29T01:14:50.215Z,3.40
2019-04-29T01:19:54.993Z,3.92
2019-04-29T01:24:59.726Z,4.00
2019-04-29T01:30:06.792Z,4.22
2019-04-29T01:35:11.895Z,3.90
2019-04-29T01:40:34.585Z,4.37
2019-04-29T01:45:39.311Z,4.58
2019-04-29T01:50:44.202Z,4.80
2019-04-29T01:55:49.057Z,5.25
2019-04-29T02:00:53.765Z,4.10
2019-04-29T02:05:58.638Z,4.60
2019-04-29T02:11:03.507Z,5.15
2019-04-29T02:16:08.267Z,5.05
2019-04-29T02:21:13.079Z,4.78
2019-04-29T02:26:18.537Z,4.97
2019-04-29T02:31:38.260Z,5.35
2019-04-29T02:36:43.147Z,5.20
2019-04-29T02:41:56.006Z,5.40
2019-04-29T02:47:00.753Z,5.70
2019-04-29T02:52:05.885Z,5.27
2019-04-29T02:57:31.570Z,5.20
2019-04-29T03:02:45.211Z,5.55
2019-04-29T03:07:50.197Z,5.75
2019-04-29T03:12:54.971Z,5.73
2019-04-29T03:18:00.115Z,6.07
2019-04-29T03:23:16.564Z,6.50
2019-04-29T03:28:27.238Z,5.70
2019-04-29T03:33:31.929Z,6.47
2019-04-29T03:38:42.389Z,6.03
2019-04-29T03:43:49.565Z,6.43
2019-04-29T03:49:01.482Z,6.75
2019-04-29T03:54:09.299Z,7.08
2019-04-29T03:59:14.175Z,6.83
2019-04-29T04:04:36.697Z,7.90
2019-04-29T04:09:42.141Z,7.42
2019-04-29T04:14:46.845Z,7.55
2019-04-29T04:19:51.722Z,8.40
2019-04-29T04:24:56.466Z,8.25
2019-04-29T04:30:01.196Z,8.45
2019-04-29T04:35:08.640Z,8.38
2019-04-29T04:40:17.194Z,8.73
2019-04-29T04:45:22.300Z,8.93
2019-04-29T04:50:27.134Z,8.27
2019-04-29T04:55:33.828Z,8.13
2019-04-29T05:00:38.529Z,8.90
2019-04-29T05:05:43.250Z,9.15
2019-04-29T05:10:48.913Z,8.53
2019-04-29T05:15:53.599Z,8.45
2019-04-29T05:20:58.358Z,8.80
2019-04-29T05:26:04.969Z,9.23
2019-04-29T05:31:09.677Z,8.97
2019-04-29T05:36:38.140Z,8.83
2019-04-29T05:41:44.008Z,9.18
2019-04-29T05:46:53.846Z,8.67
2019-04-29T05:52:23.837Z,8.18
2019-04-29T05:57:28.643Z,7.70
2019-04-29T06:02:38.271Z,7.33
2019-04-29T06:07:39.809Z,6.95
2019-04-29T06:12:44.758Z,7.97
2019-04-29T06:17:49.658Z,7.83
2019-04-29T06:22:54.396Z,7.65
2019-04-29T06:27:59.152Z,7.62
2019-04-29T06:33:04.591Z,6.80
2019-04-29T06:38:15.334Z,6.67
2019-04-29T06:43:20.033Z,7.78
2019-04-29T06:48:24.851Z,7.83
2019-04-29T06:53:29.638Z,7.53
2019-04-29T06:58:36.685Z,7.20
2019-04-29T07:03:40.894Z,6.53
2019-04-29T07:08:45.590Z,7.78
2019-04-29T07:13:53.439Z,6.58
2019-04-29T07:18:58.958Z,6.05
2019-04-29T07:24:04.764Z,6.17
2019-04-29T07:29:09.890Z,6.33
2019-04-29T07:34:14.657Z,6.42
2019-04-29T07:39:19.574Z,6.97
2019-04-29T07:44:32.850Z,7.50
2019-04-29T07:49:33.868Z,7.27
2019-04-29T07:54:38.808Z,6.90
2019-04-29T07:59:43.532Z,5.92
2019-04-29T08:04:48.485Z,5.95
2019-04-29T08:09:53.332Z,7.03
2019-04-29T08:15:07.490Z,7.33
2019-04-29T08:20:06.780Z,7.95
2019-04-29T08:25:13.308Z,7.77
2019-04-29T08:30:18.403Z,8.10
2019-04-29T08:35:23.526Z,9.03
2019-04-29T08:40:28.315Z,8.73
2019-04-29T08:45:40.599Z,10.10
2019-04-29T08:50:45.660Z,9.70
2019-04-29T08:55:51.999Z,9.98
2019-04-29T09:00:57.634Z,9.73
2019-04-29T09:06:05.615Z,10.53
2019-04-29T09:11:12.938Z,10.42
2019-04-29T09:16:15.727Z,10.17
2019-04-29T09:21:21.396Z,10.20
2019-04-29T09:26:38.977Z,10.32
2019-04-29T09:31:46.664Z,8.90
2019-04-29T09:36:50.331Z,10.00
2019-04-29T09:42:13.037Z,10.00
2019-04-29T09:47:15.108Z,10.03
2019-04-29T09:52:19.949Z,9.55
2019-04-29T09:57:24.647Z,10.32
2019-04-29T10:02:38.456Z,9.98
2019-04-29T10:07:49.041Z,10.00
2019-04-29T10:12:54.200Z,10.07
2019-04-29T10:18:06.452Z,9.83
2019-04-29T10:23:11.341Z,9.93
2019-04-29T10:28:16.109Z,10.48
2019-04-29T10:33:23.128Z,10.80
2019-04-29T10:38:28.072Z,9.60
2019-04-29T10:43:53.770Z,9.80
2019-04-29T10:49:03.589Z,10.50
2019-04-29T10:54:14.110Z,11.08
2019-04-29T10:59:17.414Z,11.30
2019-04-29T11:04:24.103Z,10.32
2019-04-29T11:09:41.991Z,12.18
2019-04-29T11:14:48.356Z,11.15
2019-04-29T11:19:53.483Z,11.90
2019-04-29T11:25:20.280Z,11.25
2019-04-29T11:30:26.777Z,11.55
2019-04-29T11:35:37.489Z,12.00
2019-04-29T11:40:44.209Z,11.57
2019-04-29T11:45:49.298Z,10.53
2019-04-29T11:51:20.054Z,9.85
2019-04-29T11:56:25.124Z,10.20
2019-04-29T12:01:53.262Z,10.55
2019-04-29T12:06:58.227Z,9.05
2019-04-29T12:12:03.430Z,10.00
2019-04-29T12:17:20.119Z,10.13
2019-04-29T12:22:30.276Z,9.83
2019-04-29T12:27:31.437Z,9.80
2019-04-29T12:32:52.132Z,9.58
2019-04-29T12:38:19.229Z,8.80
2019-04-29T12:43:43.217Z,9.45
2019-04-29T12:48:48.124Z,9.40
2019-04-29T12:53:58.003Z,8.85
2019-04-29T12:59:03.566Z,9.00
2019-04-29T13:04:22.934Z,9.58
2019-04-29T13:09:37.516Z,8.40
2019-04-29T13:15:02.588Z,9.05
2019-04-29T13:20:07.206Z,9.95
2019-04-29T13:25:19.743Z,9.10
2019-04-29T13:30:23.901Z,8.77
2019-04-29T13:35:29.678Z,8.70
2019-04-29T13:40:37.825Z,8.13
2019-04-29T13:45:47.050Z,8.18
2019-04-29T13:51:02.609Z,8.07
2019-04-29T13:56:11.847Z,8.13
2019-04-29T14:01:39.700Z,8.77
2019-04-29T14:06:56.194Z,7.85
2019-04-29T14:12:01.412Z,8.00
2019-04-29T14:17:17.243Z,7.65
2019-04-29T14:22:04.833Z,7.37
2019-04-29T14:27:24.086Z,7.83
2019-04-29T14:32:18.612Z,7.08
2019-04-29T14:37:25.243Z,7.58
2019-04-29T14:42:36.897Z,7.00
2019-04-29T14:47:50.456Z,7.30
2019-04-29T14:52:56.910Z,6.50
2019-04-29T14:58:01.684Z,5.92
2019-04-29T15:03:06.518Z,5.70
2019-04-29T15:08:12.282Z,5.70
2019-04-29T15:13:21.207Z,5.00
2019-04-29T15:18:47.143Z,4.67
2019-04-29T15:23:45.551Z,4.55
2019-04-29T15:28:53.706Z,4.42
2019-04-29T15:33:58.452Z,5.42
2019-04-29T15:39:11.895Z,4.12
2019-04-29T15:44:20.315Z,4.07
2019-04-29T15:49:24.582Z,3.30
2019-04-29T15:54:30.373Z,4.10
2019-04-29T15:59:48.620Z,4.08
2019-04-29T16:04:49.331Z,4.60
2019-04-29T16:10:14.492Z,3.80
2019-04-29T16:15:20.452Z,4.10
2019-04-29T16:20:25.268Z,3.77
2019-04-29T16:25:30.343Z,3.75
2019-04-29T16:30:35.187Z,3.67
2019-04-29T16:35:40.038Z,3.90
2019-04-29T16:40:48.850Z,3.45
2019-04-29T16:46:01.006Z,4.12
2019-04-29T16:51:14.468Z,3.77
2019-04-29T16:56:16.347Z,3.83
2019-04-29T17:01:21.156Z,3.60
2019-04-29T17:06:26.146Z,3.10
2019-04-29T17:11:32.591Z,3.25
2019-04-29T17:16:37.463Z,3.45
2019-04-29T17:21:42.384Z,3.17
2019-04-29T17:27:05.199Z,3.30
2019-04-29T17:32:43.827Z,3.20
2019-04-29T17:37:42.523Z,3.02
2019-04-29T17:42:51.094Z,3.08
2019-04-29T17:48:12.959Z,2.87
2019-04-29T17:53:37.853Z,2.90
2019-04-29T17:58:51.328Z,2.98
2019-04-29T18:04:11.802Z,2.90
2019-04-29T18:09:37.348Z,3.10
2019-04-29T18:14:44.667Z,2.92
2019-04-29T18:20:24.903Z,2.75
2019-04-29T18:25:31.421Z,2.33
2019-04-29T18:30:38.475Z,1.80
2019-04-29T18:35:42.842Z,1.87
2019-04-29T18:40:49.434Z,1.90
2019-04-29T18:45:58.336Z,2.00
2019-04-29T18:51:00.715Z,2.10
2019-04-29T18:56:05.652Z,2.17
2019-04-29T19:01:10.357Z,2.00
2019-04-29T19:06:15.679Z,2.30
2019-04-29T19:11:29.926Z,2.58
2019-04-29T19:16:27.685Z,2.20
2019-04-29T19:21:32.487Z,2.33
2019-04-29T19:26:37.670Z,2.45
2019-04-29T19:31:46.590Z,2.30
2019-04-29T19:36:50.659Z,2.10
2019-04-29T19:41:55.895Z,2.40
2019-04-29T19:47:00.629Z,2.30
2019-04-29T19:52:05.875Z,2.50
2019-04-29T19:57:10.685Z,2.80
2019-04-29T20:02:17.011Z,4.50
2019-04-29T20:07:23.788Z,2.65
2019-04-29T20:12:29.481Z,2.50
2019-04-29T20:18:05.757Z,2.40
2019-04-29T20:23:11.349Z,2.98
2019-04-29T20:28:18.517Z,2.52
2019-04-29T20:33:22.735Z,2.65
2019-04-29T20:38:29.956Z,2.55
2019-04-29T20:43:35.877Z,2.70
2019-04-29T20:48:41.374Z,2.67
2019-04-29T20:53:56.086Z,2.40
2019-04-29T20:59:01.924Z,2.45
2019-04-29T21:04:07.952Z,2.30
2019-04-29T21:09:16.737Z,2.27
2019-04-29T21:14:27.206Z,2.60
2019-04-29T21:19:32.257Z,2.33
2019-04-29T21:24:37.042Z,2.27
2019-04-29T21:29:41.795Z,2.70
2019-04-29T21:34:55.721Z,2.55
2019-04-29T21:40:07.058Z,2.30
2019-04-29T21:45:15.803Z,2.40
2019-04-29T21:50:37.920Z,2.40
2019-04-29T21:55:40.298Z,2.87
2019-04-29T22:00:45.597Z,2.47
2019-04-29T22:05:53.605Z,2.70
2019-04-29T22:11:05.083Z,2.45
2019-04-29T22:16:05.208Z,4.30
2019-04-29T22:21:14.307Z,3.20
2019-04-29T22:26:23.085Z,3.20
2019-04-29T22:31:28.362Z,3.20
2019-04-29T22:36:29.873Z,2.52
2019-04-29T22:41:56.816Z,3.17
2019-04-29T22:47:01.611Z,2.30
2019-04-29T22:52:08.990Z,3.02
2019-04-29T22:57:15.525Z,3.12
2019-04-29T23:02:25.094Z,3.02
2019-04-29T23:07:26.847Z,2.58
2019-04-29T23:12:31.599Z,2.77
2019-04-29T23:17:36.329Z,2.70
2019-04-29T23:22:47.229Z,2.87
2019-04-29T23:27:52.710Z,3.15
2019-04-29T23:32:58.651Z,2.90
2019-04-29T23:38:09.497Z,3.10
2019-04-29T23:43:15.783Z,2.92
2019-04-29T23:48:23.757Z,3.17
2019-04-29T23:53:27.017Z,3.12
2019-04-29T23:58:39.170Z,2.50
